createdAt,value
2022-08-24T00:02:31.015Z,60.93
2022-08-24T00:07:34.388Z,61.52
2022-08-24T00:12:38.581Z,61.56
2022-08-24T00:17:41.763Z,62.10
2022-08-24T00:22:44.713Z,62.37
2022-08-24T00:27:49.247Z,62.76
2022-08-24T00:32:53.766Z,62.57
2022-08-24T00:37:57.366Z,62.28
2022-08-24T00:43:04.567Z,62.85
2022-08-24T00:48:12.874Z,62.46
2022-08-24T00:53:24.340Z,63.17
2022-08-24T00:58:32.617Z,63.44
2022-08-24T01:03:37.347Z,63.99
2022-08-24T01:08:40.891Z,64.76
2022-08-24T01:13:47.857Z,64.32
2022-08-24T01:18:50.769Z,64.94
2022-08-24T01:23:58.434Z,65.28
2022-08-24T01:29:05.229Z,65.92
2022-08-24T01:34:09.254Z,66.27
2022-08-24T01:39:16.349Z,66.50
2022-08-24T01:44:20.452Z,66.77
2022-08-24T01:49:25.947Z,67.25
2022-08-24T01:54:31.361Z,67.00
2022-08-24T01:59:38.646Z,67.83
2022-08-24T02:04:44.224Z,67.46
2022-08-24T02:09:49.347Z,68.04
2022-08-24T02:14:53.395Z,68.48
2022-08-24T02:19:56.324Z,68.95
2022-08-24T02:25:00.602Z,69.21
2022-08-24T02:30:06.362Z,69.55
2022-08-24T02:35:11.073Z,70.22
2022-08-24T02:40:15.651Z,70.74
2022-08-24T02:45:18.982Z,70.59
2022-08-24T02:50:23.144Z,70.64
2022-08-24T02:55:27.692Z,70.80
2022-08-24T03:00:30.613Z,71.09
2022-08-24T03:05:34.167Z,71.61
2022-08-24T03:10:38.663Z,71.83
2022-08-24T03:15:41.926Z,72.04
2022-08-24T03:20:44.907Z,72.50
2022-08-24T03:25:49.333Z,72.34
2022-08-24T03:30:53.507Z,72.93
2022-08-24T03:35:57.805Z,73.31
2022-08-24T03:41:02.245Z,73.33
2022-08-24T03:46:07.433Z,74.00
2022-08-24T03:51:13.334Z,73.88
2022-08-24T03:56:18.454Z,74.41
2022-08-24T04:01:22.729Z,74.88
2022-08-24T04:06:26.454Z,75.75
2022-08-24T04:11:32.202Z,76.54
2022-08-24T04:16:36.406Z,76.65
2022-08-24T04:21:50.132Z,76.88
2022-08-24T04:26:56.392Z,77.35
2022-08-24T04:32:00.950Z,77.96
2022-08-24T04:37:08.534Z,78.33
2022-08-24T04:42:15.359Z,78.48
2022-08-24T04:47:18.781Z,78.52
2022-08-24T04:52:22.682Z,78.64
2022-08-24T04:57:26.907Z,78.20
2022-08-24T05:02:31.046Z,77.93
2022-08-24T05:07:36.478Z,77.70
2022-08-24T05:12:40.998Z,77.82
2022-08-24T05:17:51.398Z,78.03
2022-08-24T05:22:56.334Z,78.22
2022-08-24T05:28:01.723Z,77.73
2022-08-24T05:33:05.013Z,77.65
2022-08-24T05:38:09.531Z,77.24
2022-08-24T05:43:15.664Z,76.66
2022-08-24T05:48:19.274Z,76.33
2022-08-24T05:53:57.143Z,76.04
2022-08-24T05:59:05.576Z,75.59
2022-08-24T06:04:08.532Z,75.29
2022-08-24T06:09:12.600Z,74.95
2022-08-24T06:14:21.882Z,74.17
2022-08-24T06:19:31.457Z,74.17
2022-08-24T06:24:54.945Z,74.24
2022-08-24T06:30:01.312Z,73.62
2022-08-24T06:35:33.199Z,73.80
2022-08-24T06:40:36.175Z,70.02
2022-08-24T06:45:41.616Z,65.88
2022-08-24T06:50:49.657Z,60.43
2022-08-24T06:55:54.744Z,58.33
2022-08-24T07:01:08.267Z,58.82
2022-08-24T07:06:12.567Z,58.09
2022-08-24T07:11:20.112Z,55.34
2022-08-24T07:16:24.957Z,53.52
2022-08-24T07:21:32.989Z,49.16
2022-08-24T07:26:36.057Z,43.62
2022-08-24T07:31:41.376Z,40.26
2022-08-24T07:36:50.729Z,38.51
2022-08-24T07:42:12.326Z,39.17
2022-08-24T07:47:37.711Z,38.40
2022-08-24T07:52:48.454Z,38.90
2022-08-24T07:57:51.498Z,38.98
2022-08-24T08:02:56.810Z,40.98
2022-08-24T08:08:00.186Z,43.09
2022-08-24T08:13:04.291Z,44.22
2022-08-24T08:18:09.444Z,50.27
2022-08-24T08:23:31.846Z,55.12
2022-08-24T08:28:42.700Z,57.28
2022-08-24T08:33:47.401Z,60.13
2022-08-24T08:38:51.437Z,59.85
2022-08-24T08:44:01.178Z,59.37
2022-08-24T08:49:16.827Z,59.18
2022-08-24T08:54:43.748Z,58.31
2022-08-24T09:00:15.579Z,57.10
2022-08-24T09:06:04.853Z,57.62
2022-08-24T09:11:20.559Z,56.03
2022-08-24T09:16:39.715Z,55.93
2022-08-24T09:21:57.495Z,56.44
2022-08-24T09:27:07.080Z,56.36
2022-08-24T09:32:28.544Z,56.59
2022-08-24T09:37:50.801Z,56.37
2022-08-24T09:43:32.748Z,57.13
2022-08-24T09:49:13.626Z,56.00
2022-08-24T09:54:36.800Z,55.53
2022-08-24T10:00:05.939Z,56.18
2022-08-24T10:05:29.193Z,55.39
2022-08-24T10:10:46.872Z,53.07
2022-08-24T10:16:09.113Z,53.85
2022-08-24T10:21:25.508Z,51.71
2022-08-24T10:26:41.144Z,53.08
2022-08-24T10:32:03.875Z,51.45
2022-08-24T10:37:42.422Z,52.07
2022-08-24T10:43:37.773Z,51.06
2022-08-24T10:49:02.922Z,49.51
2022-08-24T10:54:12.293Z,49.03
2022-08-24T10:59:23.475Z,49.64
2022-08-24T11:04:30.538Z,48.49
2022-08-24T11:09:48.314Z,47.92
2022-08-24T11:14:54.047Z,47.49
2022-08-24T11:19:59.371Z,45.16
2022-08-24T11:25:11.602Z,45.81
2022-08-24T11:30:26.013Z,45.07
2022-08-24T11:35:37.301Z,44.92
2022-08-24T11:40:45.453Z,44.66
2022-08-24T11:46:01.748Z,45.66
2022-08-24T11:51:15.952Z,43.76
2022-08-24T11:56:26.394Z,43.19
2022-08-24T12:01:36.083Z,43.85
2022-08-24T12:06:59.607Z,41.38
2022-08-24T12:12:12.267Z,42.69
2022-08-24T12:17:20.334Z,40.87
2022-08-24T12:22:24.897Z,42.24
2022-08-24T12:27:33.466Z,42.42
2022-08-24T12:32:41.580Z,40.65
2022-08-24T12:37:49.206Z,41.35
2022-08-24T12:42:56.409Z,39.54
2022-08-24T12:48:06.433Z,39.40
2022-08-24T12:53:27.000Z,40.04
2022-08-24T12:58:55.704Z,40.34
2022-08-24T13:04:13.455Z,40.94
2022-08-24T13:09:29.868Z,41.04
2022-08-24T13:14:35.528Z,41.27
2022-08-24T13:19:41.980Z,40.33
2022-08-24T13:24:46.199Z,40.10
2022-08-24T13:30:09.130Z,40.97
2022-08-24T13:35:35.709Z,40.47
2022-08-24T13:40:48.843Z,40.77
2022-08-24T13:45:58.400Z,40.41
2022-08-24T13:51:26.494Z,40.22
2022-08-24T13:56:39.099Z,40.05
2022-08-24T14:02:06.840Z,40.31
2022-08-24T14:07:17.178Z,40.44
2022-08-24T14:12:38.958Z,41.17
2022-08-24T14:17:55.128Z,40.57
2022-08-24T14:23:04.367Z,40.04
2022-08-24T14:28:36.042Z,40.32
2022-08-24T14:33:52.021Z,40.58
2022-08-24T14:39:04.824Z,40.42
2022-08-24T14:44:26.187Z,40.37
2022-08-24T14:49:36.814Z,39.55
2022-08-24T14:54:47.761Z,39.40
2022-08-24T15:00:06.375Z,38.70
2022-08-24T15:05:22.071Z,38.28
2022-08-24T15:10:28.873Z,37.96
2022-08-24T15:15:36.261Z,38.05
2022-08-24T15:20:54.593Z,37.75
2022-08-24T15:26:04.753Z,37.79
2022-08-24T15:31:11.796Z,38.20
2022-08-24T15:36:18.171Z,37.44
2022-08-24T15:41:24.593Z,37.79
2022-08-24T15:46:33.863Z,37.72
2022-08-24T15:51:47.820Z,37.08
2022-08-24T15:56:53.601Z,36.45
2022-08-24T16:02:28.922Z,37.21
2022-08-24T16:07:55.022Z,37.41
2022-08-24T16:13:08.015Z,36.54
2022-08-24T16:18:12.569Z,36.79
2022-08-24T16:23:26.812Z,37.47
2022-08-24T16:28:37.373Z,36.43
2022-08-24T16:33:44.588Z,36.04
2022-08-24T16:38:51.086Z,35.24
2022-08-24T16:43:54.369Z,35.71
2022-08-24T16:48:57.483Z,35.85
2022-08-24T16:54:01.690Z,35.94
2022-08-24T16:59:06.915Z,37.68
2022-08-24T17:04:09.902Z,37.53
2022-08-24T17:09:14.232Z,37.29
2022-08-24T17:14:18.031Z,38.08
2022-08-24T17:19:21.444Z,39.34
2022-08-24T17:24:26.811Z,40.20
2022-08-24T17:29:30.195Z,40.32
2022-08-24T17:34:33.280Z,40.74
2022-08-24T17:39:37.640Z,40.50
2022-08-24T17:44:40.574Z,40.89
2022-08-24T17:49:43.526Z,41.34
2022-08-24T17:54:47.748Z,41.09
2022-08-24T17:59:51.332Z,41.58
2022-08-24T18:04:54.185Z,41.29
2022-08-24T18:10:00.654Z,41.57
2022-08-24T18:15:03.606Z,41.80
2022-08-24T18:20:10.121Z,42.47
2022-08-24T18:25:16.158Z,43.14
2022-08-24T18:30:22.601Z,43.86
2022-08-24T18:35:28.482Z,44.09
2022-08-24T18:40:34.352Z,44.69
2022-08-24T18:45:37.313Z,44.78
2022-08-24T18:50:42.277Z,45.44
2022-08-24T18:55:48.007Z,45.75
2022-08-24T19:00:51.693Z,46.15
2022-08-24T19:05:55.628Z,46.71
2022-08-24T19:11:00.311Z,47.57
2022-08-24T19:16:03.326Z,51.75
2022-08-24T19:21:06.621Z,54.48
2022-08-24T19:26:10.942Z,55.69
2022-08-24T19:31:14.668Z,57.83
2022-08-24T19:36:18.381Z,59.52
2022-08-24T19:41:23.140Z,61.39
2022-08-24T19:46:40.167Z,62.04
2022-08-24T19:51:43.684Z,63.16
2022-08-24T19:56:48.171Z,64.17
2022-08-24T20:01:51.197Z,65.16
2022-08-24T20:06:54.316Z,65.35
2022-08-24T20:11:58.572Z,66.17
2022-08-24T20:17:01.550Z,66.63
2022-08-24T20:22:13.213Z,66.95
2022-08-24T20:27:22.076Z,67.35
2022-08-24T20:32:25.021Z,68.00
2022-08-24T20:37:29.827Z,67.84
2022-08-24T20:42:34.102Z,68.35
2022-08-24T20:47:48.742Z,68.67
2022-08-24T20:52:52.780Z,68.71
2022-08-24T20:58:00.655Z,69.15
2022-08-24T21:03:03.754Z,69.20
2022-08-24T21:08:06.851Z,69.24
2022-08-24T21:13:11.479Z,69.19
2022-08-24T21:18:14.766Z,69.66
2022-08-24T21:23:17.591Z,69.78
2022-08-24T21:28:22.549Z,69.50
2022-08-24T21:33:43.103Z,69.21
2022-08-24T21:38:45.911Z,68.96
2022-08-24T21:43:50.693Z,68.45
2022-08-24T21:48:53.627Z,68.90
2022-08-24T21:53:59.612Z,69.18
2022-08-24T21:59:04.420Z,69.57
2022-08-24T22:04:08.776Z,70.49
2022-08-24T22:09:11.668Z,70.90
2022-08-24T22:14:16.792Z,71.79
2022-08-24T22:19:20.027Z,72.34
2022-08-24T22:24:23.139Z,72.61
2022-08-24T22:29:27.381Z,73.46
2022-08-24T22:34:30.956Z,73.73
2022-08-24T22:39:34.076Z,73.61
2022-08-24T22:44:38.328Z,74.35
2022-08-24T22:49:44.341Z,74.66
2022-08-24T22:54:47.202Z,74.92
2022-08-24T22:59:52.079Z,76.16
2022-08-24T23:04:55.051Z,76.47
2022-08-24T23:09:58.013Z,77.68
2022-08-24T23:15:02.316Z,78.57
2022-08-24T23:20:06.421Z,78.20
2022-08-24T23:25:14.739Z,78.90
2022-08-24T23:30:19.085Z,79.50
2022-08-24T23:35:21.895Z,80.25
2022-08-24T23:40:25.081Z,80.95
2022-08-24T23:45:30.555Z,81.62
2022-08-24T23:50:34.361Z,81.77
2022-08-24T23:55:37.186Z,82.66
